createdAt,value
2023-01-09T00:01:51.671Z,41.40
2023-01-09T00:04:24.396Z,40.60
2023-01-09T00:06:57.647Z,43.50
2023-01-09T00:09:30.540Z,44.50
2023-01-09T00:12:03.951Z,42.90
2023-01-09T00:14:39.616Z,46.00
2023-01-09T00:17:12.251Z,42.70
2023-01-09T00:19:44.958Z,44.50
2023-01-09T00:22:17.749Z,43.50
2023-01-09T00:24:50.639Z,49.20
2023-01-09T00:27:23.389Z,45.90
2023-01-09T00:29:57.474Z,48.60
2023-01-09T00:32:30.691Z,46.40
2023-01-09T00:35:03.784Z,47.40
2023-01-09T00:37:36.501Z,47.60
2023-01-09T00:40:15.090Z,46.30
2023-01-09T00:42:51.718Z,48.10
2023-01-09T00:45:29.302Z,46.70
2023-01-09T00:48:09.496Z,46.30
2023-01-09T00:50:42.281Z,48.80
2023-01-09T00:53:19.257Z,46.80
2023-01-09T00:55:53.020Z,47.20
2023-01-09T00:58:25.770Z,46.50
2023-01-09T01:00:58.816Z,48.90
2023-01-09T01:03:32.174Z,45.80
2023-01-09T01:06:22.359Z,47.60
2023-01-09T01:08:56.520Z,46.80
2023-01-09T01:11:29.477Z,49.60
2023-01-09T01:14:02.531Z,49.20
2023-01-09T01:16:35.598Z,48.40
2023-01-09T01:19:08.437Z,49.90
2023-01-09T01:21:41.650Z,49.40
2023-01-09T01:24:18.250Z,46.70
2023-01-09T01:26:51.093Z,46.00
2023-01-09T01:29:23.848Z,48.50
2023-01-09T01:31:56.656Z,50.30
2023-01-09T01:34:32.334Z,48.80
2023-01-09T01:37:05.954Z,48.30
2023-01-09T01:39:38.892Z,50.70
2023-01-09T01:42:13.069Z,49.00
2023-01-09T01:45:10.118Z,49.80
2023-01-09T01:47:57.146Z,46.40
2023-01-09T01:50:34.781Z,48.70
2023-01-09T01:53:13.920Z,49.50
2023-01-09T01:55:58.203Z,49.90
2023-01-09T01:58:32.299Z,48.10
2023-01-09T02:01:06.120Z,48.30
2023-01-09T02:03:41.254Z,50.50
2023-01-09T02:06:15.227Z,46.80
2023-01-09T02:08:51.638Z,47.40
2023-01-09T02:11:24.533Z,50.30
2023-01-09T02:13:57.411Z,49.10
2023-01-09T02:16:42.987Z,48.60
2023-01-09T02:19:36.828Z,47.00
2023-01-09T02:22:20.768Z,47.60
2023-01-09T02:25:13.967Z,51.40
2023-01-09T02:28:19.937Z,47.30
2023-01-09T02:30:58.618Z,48.40
2023-01-09T02:33:51.477Z,50.80
2023-01-09T02:36:35.695Z,48.20
2023-01-09T02:39:22.745Z,50.90
2023-01-09T02:42:02.302Z,48.90
2023-01-09T02:44:37.038Z,52.50
2023-01-09T02:47:24.340Z,53.50
2023-01-09T02:50:02.800Z,51.40
2023-01-09T02:52:47.857Z,50.40
2023-01-09T02:55:32.135Z,50.50
2023-01-09T02:58:16.095Z,50.90
2023-01-09T03:01:00.699Z,48.70
2023-01-09T03:03:40.146Z,51.30
2023-01-09T03:06:22.277Z,49.20
2023-01-09T03:08:59.652Z,50.50
2023-01-09T03:11:39.556Z,53.30
2023-01-09T03:14:19.493Z,52.10
2023-01-09T03:16:58.158Z,49.30
2023-01-09T03:19:33.831Z,50.10
2023-01-09T03:22:06.566Z,52.10
2023-01-09T03:24:39.338Z,50.90
2023-01-09T03:27:12.217Z,50.50
2023-01-09T03:29:45.024Z,50.80
2023-01-09T03:32:18.381Z,49.40
2023-01-09T03:34:51.683Z,50.20
2023-01-09T03:37:24.410Z,48.10
2023-01-09T03:39:57.196Z,50.80
2023-01-09T03:42:30.462Z,52.40
2023-01-09T03:45:03.216Z,50.80
2023-01-09T03:47:36.201Z,53.30
2023-01-09T03:50:11.315Z,51.20
2023-01-09T03:52:43.982Z,50.60
2023-01-09T03:55:16.851Z,49.50
2023-01-09T03:57:50.148Z,49.40
2023-01-09T04:00:24.054Z,49.40
2023-01-09T04:02:57.099Z,51.50
2023-01-09T04:05:29.984Z,49.60
2023-01-09T04:08:04.862Z,49.60
2023-01-09T04:10:37.819Z,54.20
2023-01-09T04:13:10.618Z,55.00
2023-01-09T04:15:43.734Z,48.80
2023-01-09T04:18:16.970Z,53.50
2023-01-09T04:20:52.428Z,52.60
2023-01-09T04:23:25.746Z,54.40
2023-01-09T04:25:58.719Z,56.50
2023-01-09T04:28:31.610Z,56.80
2023-01-09T04:31:06.108Z,56.80
2023-01-09T04:33:38.992Z,59.00
2023-01-09T04:36:13.030Z,58.70
2023-01-09T04:38:45.679Z,58.70
2023-01-09T04:41:32.263Z,56.90
2023-01-09T04:44:05.291Z,58.20
2023-01-09T04:46:38.222Z,58.20
2023-01-09T04:49:11.365Z,58.70
2023-01-09T04:51:44.249Z,56.50
2023-01-09T04:54:17.464Z,56.80
2023-01-09T04:56:50.363Z,58.60
2023-01-09T04:59:26.317Z,56.20
2023-01-09T05:02:01.657Z,55.90
2023-01-09T05:04:37.813Z,59.60
2023-01-09T05:07:10.653Z,55.20
2023-01-09T05:09:44.268Z,56.90
2023-01-09T05:12:16.968Z,54.90
2023-01-09T05:14:49.658Z,56.40
2023-01-09T05:17:22.552Z,56.20
2023-01-09T05:19:55.322Z,56.10
2023-01-09T05:22:28.222Z,53.90
2023-01-09T05:25:01.329Z,53.30
2023-01-09T05:27:34.162Z,56.10
2023-01-09T05:30:09.009Z,56.00
2023-01-09T05:32:42.038Z,55.10
2023-01-09T05:35:14.897Z,54.50
2023-01-09T05:37:47.795Z,54.30
2023-01-09T05:40:23.149Z,57.30
2023-01-09T05:42:59.569Z,60.00
2023-01-09T05:45:32.209Z,56.60
2023-01-09T05:48:14.620Z,58.80
2023-01-09T05:51:04.028Z,57.20
2023-01-09T05:53:57.517Z,53.30
2023-01-09T05:56:32.809Z,54.00
2023-01-09T05:59:05.491Z,53.70
2023-01-09T06:01:38.228Z,54.20
2023-01-09T06:04:48.617Z,55.00
2023-01-09T06:07:23.471Z,56.60
2023-01-09T06:09:57.977Z,52.30
2023-01-09T06:12:30.601Z,56.30
2023-01-09T06:15:21.788Z,55.30
2023-01-09T06:17:55.896Z,54.70
2023-01-09T06:20:28.582Z,54.00
2023-01-09T06:23:01.338Z,55.60
2023-01-09T06:25:34.281Z,56.10
2023-01-09T06:28:10.876Z,58.60
2023-01-09T06:30:44.073Z,56.70
2023-01-09T06:33:16.975Z,57.30
2023-01-09T06:35:49.806Z,59.60
2023-01-09T06:38:22.827Z,67.70
2023-01-09T06:40:55.694Z,66.20
2023-01-09T06:43:28.632Z,64.90
2023-01-09T06:46:01.501Z,62.60
2023-01-09T06:48:34.681Z,72.00
2023-01-09T06:51:07.582Z,116.00
2023-01-09T06:53:40.457Z,69.00
2023-01-09T06:56:13.131Z,78.70
2023-01-09T06:58:45.946Z,92.40
2023-01-09T07:01:18.709Z,78.00
2023-01-09T07:03:51.773Z,68.10
2023-01-09T07:06:24.990Z,60.30
2023-01-09T07:08:57.844Z,65.90
2023-01-09T07:11:30.749Z,60.20
2023-01-09T07:14:03.623Z,60.10
2023-01-09T07:16:36.726Z,59.10
2023-01-09T07:19:09.535Z,60.80
2023-01-09T07:21:42.414Z,64.40
2023-01-09T07:24:15.261Z,61.80
2023-01-09T07:26:48.235Z,81.00
2023-01-09T07:29:21.084Z,61.60
2023-01-09T07:31:53.723Z,64.70
2023-01-09T07:34:26.642Z,61.50
2023-01-09T07:36:59.665Z,61.30
2023-01-09T07:39:32.353Z,61.80
2023-01-09T07:42:05.027Z,60.80
2023-01-09T07:44:39.283Z,65.20
2023-01-09T07:47:17.416Z,62.60
2023-01-09T07:49:50.167Z,64.90
2023-01-09T07:52:23.107Z,64.60
2023-01-09T07:54:55.955Z,74.20
2023-01-09T07:57:29.934Z,74.30
2023-01-09T08:00:03.734Z,71.00
2023-01-09T08:02:44.879Z,73.30
2023-01-09T08:05:19.076Z,70.00
2023-01-09T08:07:52.111Z,72.90
2023-01-09T08:10:24.747Z,74.20
2023-01-09T08:12:57.808Z,70.80
2023-01-09T08:15:30.899Z,75.00
2023-01-09T08:18:06.317Z,71.40
2023-01-09T08:20:39.323Z,287.30
2023-01-09T08:23:11.958Z,252.50
2023-01-09T08:25:44.563Z,518.30
2023-01-09T08:28:19.483Z,387.40
2023-01-09T08:30:52.638Z,317.40
2023-01-09T08:33:25.512Z,180.20
2023-01-09T08:35:58.327Z,88.40
2023-01-09T08:38:31.235Z,84.70
2023-01-09T08:41:24.954Z,83.20
2023-01-09T08:44:15.179Z,82.00
2023-01-09T08:47:05.592Z,83.50
2023-01-09T08:49:40.053Z,71.50
2023-01-09T08:52:13.830Z,69.10
2023-01-09T08:54:46.819Z,73.30
2023-01-09T08:57:19.725Z,81.90
2023-01-09T08:59:52.679Z,69.60
2023-01-09T09:02:25.728Z,78.70
2023-01-09T09:04:59.468Z,97.10
2023-01-09T09:07:32.063Z,100.40
2023-01-09T09:10:05.725Z,89.90
2023-01-09T09:12:38.367Z,76.30
2023-01-09T09:15:20.369Z,74.00
2023-01-09T09:17:54.796Z,70.00
2023-01-09T09:20:30.617Z,68.20
2023-01-09T09:23:03.585Z,68.20
2023-01-09T09:25:40.816Z,77.60
2023-01-09T09:28:13.976Z,92.80
2023-01-09T09:30:46.880Z,141.40
2023-01-09T09:33:19.794Z,76.00
2023-01-09T09:35:52.730Z,67.30
2023-01-09T09:38:25.623Z,70.70
2023-01-09T09:41:32.316Z,70.40
2023-01-09T09:44:43.781Z,68.50
2023-01-09T09:47:38.501Z,67.80
2023-01-09T09:50:27.304Z,71.10
2023-01-09T09:53:09.295Z,71.30
2023-01-09T09:55:43.423Z,76.10
2023-01-09T09:58:22.376Z,73.00
2023-01-09T10:00:57.240Z,73.00
2023-01-09T10:03:38.564Z,73.00
2023-01-09T10:06:18.778Z,74.20
2023-01-09T10:09:01.536Z,72.30
2023-01-09T10:11:41.132Z,76.00
2023-01-09T10:14:23.592Z,184.00
2023-01-09T10:17:12.408Z,91.30
2023-01-09T10:20:06.709Z,75.10
2023-01-09T10:22:48.447Z,77.40
2023-01-09T10:25:27.550Z,75.90
2023-01-09T10:28:17.616Z,74.40
2023-01-09T10:30:53.411Z,87.60
2023-01-09T10:33:42.004Z,72.50
2023-01-09T10:36:51.361Z,69.70
2023-01-09T10:39:28.815Z,69.20
2023-01-09T10:42:26.213Z,62.90
2023-01-09T10:45:57.634Z,64.40
2023-01-09T10:48:34.961Z,65.80
2023-01-09T10:51:16.677Z,64.70
2023-01-09T10:53:53.614Z,64.80
2023-01-09T10:56:29.317Z,66.90
2023-01-09T10:59:02.172Z,67.30
2023-01-09T11:02:05.190Z,160.70
2023-01-09T11:04:40.936Z,110.30
2023-01-09T11:07:21.843Z,71.30
2023-01-09T11:10:08.254Z,69.50
2023-01-09T11:12:41.861Z,66.30
2023-01-09T11:15:33.364Z,67.60
2023-01-09T11:18:25.121Z,77.50
2023-01-09T11:21:13.357Z,71.80
2023-01-09T11:23:45.985Z,68.00
2023-01-09T11:26:27.931Z,65.90
2023-01-09T11:29:13.758Z,66.90
2023-01-09T11:31:58.176Z,75.80
2023-01-09T11:34:33.416Z,67.10
2023-01-09T11:37:11.635Z,66.80
2023-01-09T11:39:48.625Z,66.70
2023-01-09T11:42:49.193Z,64.80
2023-01-09T11:45:26.837Z,63.50
2023-01-09T11:48:58.732Z,74.70
2023-01-09T11:52:22.548Z,73.90
2023-01-09T11:55:41.990Z,67.10
2023-01-09T12:02:24.906Z,63.00
2023-01-09T12:05:42.931Z,66.70
2023-01-09T12:12:05.760Z,94.90
2023-01-09T12:14:51.353Z,101.80
2023-01-09T12:21:27.173Z,85.80
2023-01-09T12:24:56.269Z,78.20
2023-01-09T12:31:12.507Z,59.80
2023-01-09T12:33:53.841Z,66.60
2023-01-09T12:36:34.253Z,61.10
2023-01-09T12:39:19.648Z,76.40
2023-01-09T12:42:24.430Z,100.50
2023-01-09T12:45:03.028Z,68.00
2023-01-09T12:47:50.185Z,69.20
2023-01-09T12:50:38.864Z,73.70
2023-01-09T12:53:46.261Z,80.80
2023-01-09T12:56:38.367Z,68.70
2023-01-09T12:59:30.912Z,63.50
2023-01-09T13:05:38.230Z,70.50
2023-01-09T13:08:17.767Z,76.80
2023-01-09T13:10:53.437Z,75.90
2023-01-09T13:13:32.338Z,76.00
2023-01-09T13:16:08.568Z,79.40
2023-01-09T13:18:46.674Z,75.80
2023-01-09T13:21:23.850Z,73.00
2023-01-09T13:24:48.562Z,72.40
2023-01-09T13:27:39.181Z,68.30
2023-01-09T13:31:02.536Z,66.10
2023-01-09T13:33:39.365Z,69.70
2023-01-09T13:36:40.451Z,67.40
2023-01-09T13:39:33.215Z,62.80
2023-01-09T13:43:02.826Z,97.20
2023-01-09T13:46:14.913Z,96.40
2023-01-09T13:48:59.064Z,68.30
2023-01-09T13:52:00.715Z,69.80
2023-01-09T13:55:25.328Z,67.40
2023-01-09T13:58:26.543Z,72.20
2023-01-09T14:01:08.302Z,68.30
2023-01-09T14:03:44.288Z,66.80
2023-01-09T14:06:21.620Z,77.50
2023-01-09T14:09:23.213Z,89.80
2023-01-09T14:12:07.801Z,106.70
2023-01-09T14:14:46.334Z,179.80
2023-01-09T14:20:41.923Z,87.70
2023-01-09T14:23:50.791Z,106.10
2023-01-09T14:26:42.673Z,88.30
2023-01-09T14:30:02.706Z,86.30
2023-01-09T14:33:02.858Z,85.40
2023-01-09T14:36:12.759Z,91.00
2023-01-09T14:38:48.071Z,84.90
2023-01-09T14:41:50.733Z,82.10
2023-01-09T14:45:05.456Z,85.70
2023-01-09T14:47:43.071Z,74.50
2023-01-09T14:50:23.739Z,73.00
2023-01-09T14:53:24.575Z,74.20
2023-01-09T14:56:25.402Z,73.30
2023-01-09T14:59:22.740Z,63.40
2023-01-09T15:09:20.900Z,57.30
2023-01-09T15:11:56.275Z,59.90
2023-01-09T15:14:40.033Z,59.80
2023-01-09T15:17:30.707Z,59.80
2023-01-09T15:20:41.900Z,67.60
2023-01-09T15:23:38.963Z,66.40
2023-01-09T15:26:56.807Z,69.40
2023-01-09T15:29:30.223Z,60.10
2023-01-09T15:35:50.360Z,63.10
2023-01-09T15:39:07.574Z,73.00
2023-01-09T15:42:05.016Z,69.60
2023-01-09T15:44:59.487Z,65.60
2023-01-09T15:47:38.542Z,64.40
2023-01-09T15:50:16.289Z,63.40
2023-01-09T15:53:08.406Z,61.70
2023-01-09T15:56:30.663Z,58.10
2023-01-09T15:59:04.295Z,73.30
2023-01-09T16:01:48.982Z,67.40
2023-01-09T16:04:37.040Z,59.90
2023-01-09T16:07:16.962Z,58.00
2023-01-09T16:09:52.860Z,60.20
2023-01-09T16:12:29.554Z,68.80
2023-01-09T16:15:34.610Z,60.00
2023-01-09T16:19:39.764Z,64.10
2023-01-09T16:23:05.665Z,66.20
2023-01-09T16:25:39.404Z,70.10
2023-01-09T16:28:23.199Z,63.60
2023-01-09T16:30:59.847Z,60.70
2023-01-09T16:34:01.745Z,64.10
2023-01-09T16:40:09.335Z,71.20
2023-01-09T16:43:07.271Z,89.50
2023-01-09T16:45:42.466Z,81.90
2023-01-09T16:48:24.684Z,82.00
2023-01-09T16:51:45.006Z,80.90
2023-01-09T16:58:10.489Z,69.50
2023-01-09T17:01:34.511Z,68.00
2023-01-09T17:04:14.294Z,71.50
2023-01-09T17:06:48.419Z,73.10
2023-01-09T17:09:27.486Z,80.80
2023-01-09T17:12:01.637Z,120.60
2023-01-09T17:14:34.338Z,116.20
2023-01-09T17:17:13.235Z,129.90
2023-01-09T17:20:04.653Z,143.60
2023-01-09T17:22:37.436Z,127.80
2023-01-09T17:25:48.022Z,132.70
2023-01-09T17:28:36.227Z,193.70
2023-01-09T17:31:13.203Z,211.30
2023-01-09T17:33:45.913Z,181.90
2023-01-09T17:36:28.954Z,185.50
2023-01-09T17:39:02.138Z,125.70
2023-01-09T17:41:35.523Z,123.20
2023-01-09T17:44:09.196Z,119.50
2023-01-09T17:46:44.860Z,148.10
2023-01-09T17:52:29.130Z,133.90
2023-01-09T17:55:25.080Z,121.10
2023-01-09T17:57:59.540Z,115.30
2023-01-09T18:00:36.837Z,140.70
2023-01-09T18:03:09.703Z,119.50
2023-01-09T18:05:42.384Z,119.10
2023-01-09T18:08:16.406Z,122.10
2023-01-09T18:10:50.201Z,102.80
2023-01-09T18:13:22.949Z,109.70
2023-01-09T18:16:02.554Z,115.60
2023-01-09T18:18:36.727Z,114.00
2023-01-09T18:21:49.473Z,158.70
2023-01-09T18:24:22.895Z,123.60
2023-01-09T18:27:22.113Z,117.80
2023-01-09T18:30:23.683Z,102.50
2023-01-09T18:33:35.886Z,88.70
2023-01-09T18:36:51.079Z,85.30
2023-01-09T18:39:32.498Z,84.80
2023-01-09T18:42:23.628Z,90.80
2023-01-09T18:45:26.810Z,115.90
2023-01-09T18:48:23.345Z,114.80
2023-01-09T18:51:30.519Z,123.20
2023-01-09T18:54:32.212Z,131.20
2023-01-09T18:57:05.057Z,105.80
2023-01-09T18:59:37.798Z,107.60
2023-01-09T19:02:18.745Z,112.10
2023-01-09T19:04:53.441Z,98.10
2023-01-09T19:07:26.252Z,93.90
2023-01-09T19:09:59.499Z,112.20
2023-01-09T19:12:32.251Z,142.10
2023-01-09T19:15:11.627Z,105.00
2023-01-09T19:17:58.494Z,126.60
2023-01-09T19:20:31.721Z,90.10
2023-01-09T19:23:04.594Z,98.50
2023-01-09T19:25:37.300Z,98.10
2023-01-09T19:28:10.655Z,106.70
2023-01-09T19:30:44.934Z,104.10
2023-01-09T19:36:43.656Z,103.40
2023-01-09T19:39:16.823Z,109.60
2023-01-09T19:41:49.559Z,103.70
2023-01-09T19:44:29.247Z,103.90
2023-01-09T19:47:14.795Z,97.50
2023-01-09T19:49:47.547Z,100.60
2023-01-09T19:52:20.462Z,104.20
2023-01-09T19:55:21.736Z,94.50
2023-01-09T19:57:54.937Z,98.30
2023-01-09T20:00:35.404Z,94.00
2023-01-09T20:05:14.861Z,82.50
2023-01-09T20:07:47.700Z,89.70
2023-01-09T20:10:20.807Z,96.30
2023-01-09T20:12:53.487Z,92.60
2023-01-09T20:15:26.220Z,94.30
2023-01-09T20:17:59.960Z,96.20
2023-01-09T20:20:32.943Z,95.00
2023-01-09T20:23:05.659Z,86.00
2023-01-09T20:25:38.409Z,89.60
2023-01-09T20:31:25.189Z,86.50
2023-01-09T20:34:01.016Z,86.10
2023-01-09T20:36:55.470Z,85.30
2023-01-09T20:39:28.419Z,84.90
2023-01-09T20:42:01.136Z,83.20
2023-01-09T20:44:33.955Z,79.00
2023-01-09T20:47:06.913Z,81.10
2023-01-09T20:49:39.811Z,78.20
2023-01-09T20:52:12.991Z,81.60
2023-01-09T20:54:46.099Z,78.30
2023-01-09T20:57:19.224Z,76.10
2023-01-09T20:59:52.099Z,74.70
2023-01-09T21:02:25.290Z,78.30
2023-01-09T21:05:25.347Z,78.80
2023-01-09T21:07:58.219Z,75.20
2023-01-09T21:10:31.027Z,75.50
2023-01-09T21:13:03.637Z,81.50
2023-01-09T21:15:38.166Z,77.40
2023-01-09T21:18:10.890Z,80.60
2023-01-09T21:20:44.167Z,79.60
2023-01-09T21:23:19.490Z,79.50
2023-01-09T21:25:52.359Z,74.10
2023-01-09T21:28:25.588Z,78.50
2023-01-09T21:30:58.556Z,74.00
2023-01-09T21:33:31.412Z,77.60
2023-01-09T21:36:05.246Z,76.80
2023-01-09T21:38:38.597Z,74.10
2023-01-09T21:41:29.485Z,73.10
2023-01-09T21:44:20.423Z,72.30
2023-01-09T21:46:57.808Z,68.10
2023-01-09T21:49:35.238Z,70.20
2023-01-09T21:52:08.644Z,71.20
2023-01-09T21:54:42.642Z,67.90
2023-01-09T21:57:15.777Z,69.70
2023-01-09T21:59:48.838Z,66.80
2023-01-09T22:02:22.982Z,65.10
2023-01-09T22:05:00.333Z,69.00
2023-01-09T22:07:35.881Z,67.20
2023-01-09T22:10:10.920Z,68.10
2023-01-09T22:13:04.825Z,61.40
2023-01-09T22:15:38.480Z,65.80
2023-01-09T22:18:11.262Z,63.60
2023-01-09T22:20:44.035Z,62.70
2023-01-09T22:23:17.085Z,61.20
2023-01-09T22:25:50.228Z,62.10
2023-01-09T22:28:24.147Z,62.30
2023-01-09T22:30:56.981Z,61.10
2023-01-09T22:33:29.950Z,59.00
2023-01-09T22:36:08.917Z,58.10
2023-01-09T22:38:41.810Z,57.60
2023-01-09T22:41:14.807Z,60.70
2023-01-09T22:43:47.796Z,56.30
2023-01-09T22:46:21.407Z,55.50
2023-01-09T22:48:54.290Z,56.00
2023-01-09T22:51:27.252Z,55.20
2023-01-09T22:54:00.570Z,54.80
2023-01-09T22:56:33.411Z,57.80
2023-01-09T22:59:06.139Z,55.60
2023-01-09T23:01:39.389Z,55.10
2023-01-09T23:05:04.819Z,52.60
2023-01-09T23:08:19.574Z,53.90
2023-01-09T23:10:51.862Z,51.20
2023-01-09T23:13:24.775Z,53.90
2023-01-09T23:15:57.516Z,53.30
2023-01-09T23:18:30.338Z,52.50
2023-01-09T23:21:04.813Z,53.00
2023-01-09T23:23:37.960Z,50.80
2023-01-09T23:26:13.284Z,49.40
2023-01-09T23:28:45.919Z,48.50
2023-01-09T23:31:18.857Z,50.60
2023-01-09T23:33:51.485Z,46.30
2023-01-09T23:36:24.371Z,49.10
2023-01-09T23:38:59.703Z,46.00
2023-01-09T23:41:48.604Z,45.20
2023-01-09T23:44:21.397Z,43.50
2023-01-09T23:46:54.351Z,45.10
2023-01-09T23:49:27.062Z,45.20
2023-01-09T23:52:01.723Z,42.10
2023-01-09T23:54:34.340Z,41.40
2023-01-09T23:57:08.305Z,43.50
2023-01-09T23:59:40.884Z,42.50
